Time;durP1;ratioP1;P1;durP2;ratioP2;P2;SDS_P1;SDS_P2;PMS_P1;PMS_P2;Temp;Humidity;BMP_temperature;BMP_pressure;BME280_temperature;BME280_humidity;BME280_pressure;Samples;Min_cycle;Max_cycle;Signal;HPM_P1;HPM_P2
2021/11/24 00:01:55;;;;;;;;;;;8.10;99.90;;;;;;5095315;28;19989;-77
2021/11/24 00:04:25;;;;;;;;;;;8.10;99.90;;;;;;5095589;28;20023;-77
2021/11/24 00:06:55;;;;;;;;;;;8.10;99.90;;;;;;5095514;28;19924;-77
2021/11/24 00:09:22;;;;;;;;;;;8.10;99.90;;;;;;5095360;28;20237;-77
2021/11/24 00:11:50;;;;;;;;;;;8.10;99.90;;;;;;5095516;28;20005;-77
2021/11/24 00:14:20;;;;;;;;;;;8.10;99.90;;;;;;5095015;28;20018;-76
2021/11/24 00:16:49;;;;;;;;;;;8.10;99.90;;;;;;5095301;28;19924;-77
2021/11/24 00:19:15;;;;;;;;;;;8.10;99.90;;;;;;5095400;28;19934;-77
2021/11/24 00:21:44;;;;;;;;;;;8.10;99.90;;;;;;5095377;28;19963;-77
2021/11/24 00:24:12;;;;;;;;;;;8.10;99.90;;;;;;5095312;28;20026;-77
2021/11/24 00:26:40;;;;;;;;;;;8.10;99.90;;;;;;5095269;28;20011;-76
2021/11/24 00:29:10;;;;;;;;;;;8.10;99.90;;;;;;5094728;28;20020;-77
2021/11/24 00:31:41;;;;;;;;;;;8.10;99.90;;;;;;5095250;28;19924;-77
2021/11/24 00:34:09;;;;;;;;;;;8.10;99.90;;;;;;5095411;28;20330;-77
2021/11/24 00:36:37;;;;;;;;;;;8.10;99.90;;;;;;5095257;28;20014;-76
2021/11/24 00:39:07;;;;;;;;;;;8.10;99.90;;;;;;5095282;28;19924;-77
2021/11/24 00:41:37;;;;;;;;;;;8.10;99.90;;;;;;5094706;28;19925;-77
2021/11/24 00:44:08;;;;;;;;;;;8.10;99.90;;;;;;5095110;28;19924;-77
2021/11/24 00:46:48;;;;;;;;;;;8.10;99.90;;;;;;5094961;28;20348;-77
2021/11/24 00:49:16;;;;;;;;;;;8.10;99.90;;;;;;5094612;28;19924;-77
2021/11/24 00:51:45;;;;;;;;;;;8.10;99.90;;;;;;5094976;28;19924;-77
2021/11/24 00:54:12;;;;;;;;;;;8.10;99.90;;;;;;5097475;28;20031;-77
2021/11/24 00:56:39;;;;;;;;;;;8.00;99.90;;;;;;5099742;28;20420;-76
2021/11/24 00:59:06;;;;;;;;;;;8.10;99.90;;;;;;5098739;28;19930;-77
2021/11/24 01:01:33;;;;;;;;;;;8.10;99.90;;;;;;5099170;28;20024;-77
2021/11/24 01:04:01;;;;;;;;;;;8.10;99.90;;;;;;5099162;28;19924;-77
2021/11/24 01:06:28;;;;;;;;;;;8.10;99.90;;;;;;5099045;28;19967;-77
2021/11/24 01:08:55;;;;;;;;;;;8.10;99.90;;;;;;5099060;28;19924;-77
2021/11/24 01:11:22;;;;;;;;;;;8.10;99.90;;;;;;5098867;28;19934;-76
2021/11/24 01:13:49;;;;;;;;;;;8.10;99.90;;;;;;5098798;28;19939;-76
2021/11/24 01:16:16;;;;;;;;;;;8.00;99.90;;;;;;5098604;28;19924;-76
2021/11/24 01:18:42;;;;;;;;;;;8.10;99.90;;;;;;5098951;28;20384;-76
2021/11/24 01:21:11;;;;;;;;;;;8.10;99.90;;;;;;5098746;28;20317;-77
2021/11/24 01:23:38;;;;;;;;;;;8.10;99.90;;;;;;5098583;28;20378;-77
2021/11/24 01:26:04;;;;;;;;;;;8.10;99.90;;;;;;5098555;28;19924;-77
2021/11/24 01:28:31;;;;;;;;;;;8.10;99.90;;;;;;5098443;28;20018;-77
2021/11/24 01:30:58;;;;;;;;;;;8.10;99.90;;;;;;5098421;28;20023;-77
2021/11/24 01:33:25;;;;;;;;;;;8.10;99.90;;;;;;5098432;28;20362;-77
2021/11/24 01:35:52;;;;;;;;;;;8.10;99.90;;;;;;5098322;28;20014;-77
2021/11/24 01:38:20;;;;;;;;;;;8.10;99.90;;;;;;5098382;28;19927;-77
2021/11/24 01:40:47;;;;;;;;;;;8.10;99.90;;;;;;5098471;28;19924;-76
2021/11/24 01:43:14;;;;;;;;;;;8.10;99.90;;;;;;5098485;28;19938;-76
2021/11/24 01:45:41;;;;;;;;;;;8.10;99.90;;;;;;5098295;28;19934;-76
2021/11/24 01:48:08;;;;;;;;;;;8.10;99.90;;;;;;5098123;28;19931;-76
2021/11/24 01:50:35;;;;;;;;;;;8.10;99.90;;;;;;5098029;28;19997;-77
2021/11/24 01:53:01;;;;;;;;;;;8.10;99.90;;;;;;5098121;28;20407;-77
2021/11/24 01:55:30;;;;;;;;;;;8.10;99.90;;;;;;5097928;28;19924;-77
2021/11/24 01:57:57;;;;;;;;;;;8.10;99.90;;;;;;5098221;28;20028;-77
2021/11/24 02:00:25;;;;;;;;;;;8.10;99.90;;;;;;5098115;28;19928;-77
2021/11/24 02:02:51;;;;;;;;;;;8.10;99.90;;;;;;5098206;28;20016;-77
2021/11/24 02:05:18;;;;;;;;;;;8.10;99.90;;;;;;5097935;28;19928;-77
2021/11/24 02:07:45;;;;;;;;;;;8.10;99.90;;;;;;5097212;28;20018;-77
2021/11/24 02:10:12;;;;;;;;;;;8.10;99.90;;;;;;5098075;28;20387;-77
2021/11/24 02:12:40;;;;;;;;;;;8.10;99.90;;;;;;5097792;28;20348;-77
2021/11/24 02:15:07;;;;;;;;;;;8.00;99.90;;;;;;5097658;28;20015;-77
2021/11/24 02:17:34;;;;;;;;;;;8.10;99.90;;;;;;5097320;28;20018;-77
2021/11/24 02:20:01;;;;;;;;;;;8.10;99.90;;;;;;5097459;28;20387;-77
2021/11/24 02:22:29;;;;;;;;;;;8.10;99.90;;;;;;5097516;28;19950;-77
2021/11/24 02:24:56;;;;;;;;;;;8.00;99.90;;;;;;5097412;28;20267;-77
2021/11/24 02:27:23;;;;;;;;;;;8.00;99.90;;;;;;5097567;28;20006;-77
2021/11/24 02:29:50;;;;;;;;;;;8.00;99.90;;;;;;5097322;28;19924;-77
2021/11/24 02:32:17;;;;;;;;;;;8.00;99.90;;;;;;5097358;28;19934;-77
2021/11/24 02:34:44;;;;;;;;;;;8.00;99.90;;;;;;5097333;28;19928;-77
2021/11/24 02:37:11;;;;;;;;;;;8.00;99.90;;;;;;5097009;28;19935;-77
2021/11/24 02:39:39;;;;;;;;;;;8.00;99.90;;;;;;5097242;28;19924;-77
2021/11/24 02:42:06;;;;;;;;;;;8.00;99.90;;;;;;5096224;28;19930;-77
2021/11/24 02:44:35;;;;;;;;;;;8.00;99.90;;;;;;5097085;28;19924;-77
2021/11/24 02:47:11;;;;;;;;;;;8.00;99.90;;;;;;5097127;28;19924;-77
2021/11/24 02:49:38;;;;;;;;;;;8.00;99.90;;;;;;5096863;28;19924;-77
2021/11/24 02:52:05;;;;;;;;;;;8.00;99.90;;;;;;5097181;28;19924;-77
2021/11/24 02:54:32;;;;;;;;;;;8.00;99.90;;;;;;5097238;28;20010;-77
2021/11/24 02:57:01;;;;;;;;;;;8.00;99.90;;;;;;5096767;28;20027;-77
2021/11/24 02:59:28;;;;;;;;;;;8.00;99.90;;;;;;5096904;28;19935;-77
2021/11/24 03:01:54;;;;;;;;;;;8.00;99.90;;;;;;5096780;28;20353;-77
2021/11/24 03:04:26;;;;;;;;;;;8.00;99.90;;;;;;5096717;28;20022;-77
2021/11/24 03:06:53;;;;;;;;;;;8.00;99.90;;;;;;5096832;28;19924;-77
2021/11/24 03:09:20;;;;;;;;;;;8.00;99.90;;;;;;5096606;28;19924;-77
2021/11/24 03:11:47;;;;;;;;;;;8.00;99.90;;;;;;5096401;28;20431;-77
2021/11/24 03:14:15;;;;;;;;;;;8.00;99.90;;;;;;5096911;28;19931;-77
2021/11/24 03:16:42;;;;;;;;;;;8.00;99.90;;;;;;5096301;28;20121;-77
2021/11/24 03:19:09;;;;;;;;;;;8.00;99.90;;;;;;5095446;28;19924;-77
2021/11/24 03:21:35;;;;;;;;;;;8.00;99.90;;;;;;5096534;28;20007;-77
2021/11/24 03:24:02;;;;;;;;;;;8.00;99.90;;;;;;5096540;28;19924;-77
2021/11/24 03:26:29;;;;;;;;;;;8.00;99.90;;;;;;5096374;28;19924;-77
2021/11/24 03:28:56;;;;;;;;;;;8.00;99.90;;;;;;5096258;28;19924;-77
2021/11/24 03:31:24;;;;;;;;;;;7.90;99.90;;;;;;5096211;28;19975;-77
2021/11/24 03:33:51;;;;;;;;;;;7.90;99.90;;;;;;5096206;28;19931;-77
2021/11/24 03:36:18;;;;;;;;;;;7.90;99.90;;;;;;5096132;28;19924;-77
2021/11/24 03:38:45;;;;;;;;;;;8.00;99.90;;;;;;5096222;28;20431;-77
2021/11/24 03:41:12;;;;;;;;;;;7.90;99.90;;;;;;5096217;28;19924;-77
2021/11/24 03:43:38;;;;;;;;;;;7.90;99.90;;;;;;5096172;28;19946;-77
2021/11/24 03:46:05;;;;;;;;;;;7.90;99.90;;;;;;5095990;28;20006;-77
2021/11/24 03:48:34;;;;;;;;;;;7.90;99.90;;;;;;5096121;28;19925;-77
2021/11/24 03:51:00;;;;;;;;;;;7.90;99.90;;;;;;5096055;28;19931;-76
2021/11/24 03:53:27;;;;;;;;;;;7.90;99.90;;;;;;5095911;28;20018;-77
2021/11/24 03:55:54;;;;;;;;;;;7.90;99.90;;;;;;5095686;28;19934;-77
2021/11/24 03:58:21;;;;;;;;;;;7.90;99.90;;;;;;5095766;28;19964;-77
2021/11/24 04:00:48;;;;;;;;;;;7.90;99.90;;;;;;5095639;28;20336;-77
2021/11/24 04:03:15;;;;;;;;;;;7.90;99.90;;;;;;5095896;28;20011;-77
2021/11/24 04:05:43;;;;;;;;;;;7.90;99.90;;;;;;5095847;28;19924;-77
2021/11/24 04:08:10;;;;;;;;;;;7.90;99.90;;;;;;5095680;28;20010;-77
2021/11/24 04:10:37;;;;;;;;;;;7.90;99.90;;;;;;5095935;28;20014;-77
2021/11/24 04:13:04;;;;;;;;;;;7.90;99.90;;;;;;5095467;28;20006;-77
2021/11/24 04:15:31;;;;;;;;;;;7.90;99.90;;;;;;5095423;28;20012;-77
2021/11/24 04:17:57;;;;;;;;;;;7.90;99.90;;;;;;5095433;28;20340;-77
2021/11/24 04:20:24;;;;;;;;;;;7.90;99.90;;;;;;5095635;28;19940;-77
2021/11/24 04:22:53;;;;;;;;;;;7.90;99.90;;;;;;5095429;28;20023;-77
2021/11/24 04:25:19;;;;;;;;;;;7.90;99.90;;;;;;5095485;28;20003;-77
2021/11/24 04:27:46;;;;;;;;;;;7.90;99.90;;;;;;5095623;28;20011;-77
2021/11/24 04:30:13;;;;;;;;;;;7.90;99.90;;;;;;5095015;28;19928;-77
2021/11/24 04:32:40;;;;;;;;;;;7.90;99.90;;;;;;5095234;28;19924;-77
2021/11/24 04:35:07;;;;;;;;;;;7.90;99.90;;;;;;5095183;28;19924;-77
2021/11/24 04:37:34;;;;;;;;;;;7.90;99.90;;;;;;5095169;28;20031;-77
2021/11/24 04:40:03;;;;;;;;;;;7.90;99.90;;;;;;5095191;28;20321;-77
2021/11/24 04:42:30;;;;;;;;;;;7.90;99.90;;;;;;5095125;28;19924;-77
2021/11/24 04:44:56;;;;;;;;;;;7.90;99.90;;;;;;5095369;28;19934;-77
2021/11/24 04:47:23;;;;;;;;;;;7.90;99.90;;;;;;5095479;28;19924;-77
2021/11/24 04:49:50;;;;;;;;;;;7.90;99.90;;;;;;5095276;28;19924;-77
2021/11/24 04:52:17;;;;;;;;;;;7.90;99.90;;;;;;5095056;28;19924;-77
2021/11/24 04:54:44;;;;;;;;;;;7.90;99.90;;;;;;5095214;28;19924;-77
2021/11/24 04:57:12;;;;;;;;;;;7.90;99.90;;;;;;5094980;28;19936;-77
2021/11/24 04:59:40;;;;;;;;;;;7.90;99.90;;;;;;5095031;28;19924;-77
2021/11/24 05:02:07;;;;;;;;;;;7.90;99.90;;;;;;5095047;28;19997;-77
2021/11/24 05:04:34;;;;;;;;;;;7.90;99.90;;;;;;5095171;28;19924;-77
2021/11/24 05:07:01;;;;;;;;;;;7.90;99.90;;;;;;5094932;28;20023;-77
2021/11/24 05:09:28;;;;;;;;;;;7.90;99.90;;;;;;5095298;28;20400;-77
2021/11/24 05:11:55;;;;;;;;;;;7.90;99.90;;;;;;5094916;28;20019;-77
2021/11/24 05:14:27;;;;;;;;;;;7.90;99.90;;;;;;5095173;28;19938;-77
2021/11/24 05:16:54;;;;;;;;;;;7.90;99.90;;;;;;5095043;28;20310;-77
2021/11/24 05:19:23;;;;;;;;;;;7.90;99.90;;;;;;5094907;28;19989;-77
2021/11/24 05:21:51;;;;;;;;;;;7.90;99.90;;;;;;5094705;28;19924;-77
2021/11/24 05:24:18;;;;;;;;;;;7.90;99.90;;;;;;5094800;28;19924;-77
2021/11/24 05:26:45;;;;;;;;;;;7.80;99.90;;;;;;5094758;28;19924;-77
2021/11/24 05:29:12;;;;;;;;;;;7.80;99.90;;;;;;5094478;28;20248;-77
2021/11/24 05:31:40;;;;;;;;;;;7.80;99.90;;;;;;5095004;28;19970;-77
2021/11/24 05:34:07;;;;;;;;;;;7.90;99.90;;;;;;5094684;28;20400;-77
2021/11/24 05:36:35;;;;;;;;;;;7.80;99.90;;;;;;5094791;28;19924;-76
2021/11/24 05:39:05;;;;;;;;;;;7.80;99.90;;;;;;5094831;28;19935;-77
2021/11/24 05:41:32;;;;;;;;;;;7.90;99.90;;;;;;5095355;28;19932;-77
2021/11/24 05:44:14;;;;;;;;;;;7.90;99.90;;;;;;5098193;28;19924;-77
2021/11/24 05:46:45;;;;;;;;;;;7.90;99.90;;;;;;5098306;28;19989;-77
2021/11/24 05:49:12;;;;;;;;;;;7.80;99.90;;;;;;5098272;28;19924;-77
2021/11/24 05:51:39;;;;;;;;;;;7.80;99.90;;;;;;5098045;28;20015;-77
2021/11/24 05:54:06;;;;;;;;;;;7.90;99.90;;;;;;5098092;28;20423;-77
2021/11/24 05:56:36;;;;;;;;;;;7.80;99.90;;;;;;5098064;28;20026;-77
2021/11/24 05:59:03;;;;;;;;;;;7.90;99.90;;;;;;5098064;28;19923;-77
2021/11/24 06:01:30;;;;;;;;;;;7.80;99.90;;;;;;5097949;28;20014;-76
2021/11/24 06:03:58;;;;;;;;;;;7.90;99.90;;;;;;5097925;28;20021;-77
2021/11/24 06:06:25;;;;;;;;;;;7.80;99.90;;;;;;5098040;28;19938;-77
2021/11/24 06:08:52;;;;;;;;;;;7.90;99.90;;;;;;5097876;28;19924;-77
2021/11/24 06:11:19;;;;;;;;;;;7.90;99.90;;;;;;5097860;28;20001;-77
2021/11/24 06:13:46;;;;;;;;;;;7.80;99.90;;;;;;5097670;28;19928;-76
2021/11/24 06:16:13;;;;;;;;;;;7.80;99.90;;;;;;5097666;28;20018;-76
2021/11/24 06:18:40;;;;;;;;;;;7.90;99.90;;;;;;5097558;28;19935;-77
2021/11/24 06:21:08;;;;;;;;;;;7.90;99.90;;;;;;5097633;28;20248;-77
2021/11/24 06:23:39;;;;;;;;;;;7.80;99.90;;;;;;5097398;28;19939;-77
2021/11/24 06:26:06;;;;;;;;;;;7.90;99.90;;;;;;5097559;28;19971;-77
2021/11/24 06:28:33;;;;;;;;;;;7.90;99.90;;;;;;5097477;28;19924;-77
2021/11/24 06:31:00;;;;;;;;;;;7.80;99.90;;;;;;5097326;28;20023;-76
2021/11/24 06:33:29;;;;;;;;;;;7.80;99.90;;;;;;5096923;28;22537;-77
2021/11/24 06:35:55;;;;;;;;;;;7.80;99.90;;;;;;5097337;28;19962;-77
2021/11/24 06:38:24;;;;;;;;;;;7.90;99.90;;;;;;5097087;28;19938;-77
2021/11/24 06:40:51;;;;;;;;;;;7.90;99.90;;;;;;5097361;28;19934;-77
2021/11/24 06:43:17;;;;;;;;;;;7.80;99.90;;;;;;5097237;28;19930;-77
2021/11/24 06:45:44;;;;;;;;;;;7.80;99.90;;;;;;5096955;28;20415;-77
2021/11/24 06:48:11;;;;;;;;;;;7.80;99.90;;;;;;5096999;28;19924;-77
2021/11/24 06:50:38;;;;;;;;;;;7.80;99.90;;;;;;5097247;28;20011;-77
2021/11/24 06:53:05;;;;;;;;;;;7.80;99.90;;;;;;5097083;28;19924;-77
2021/11/24 06:55:33;;;;;;;;;;;7.80;99.90;;;;;;5096961;28;20015;-77
2021/11/24 06:58:00;;;;;;;;;;;7.80;99.90;;;;;;5096689;28;20018;-77
2021/11/24 07:00:27;;;;;;;;;;;7.80;99.90;;;;;;5096698;28;20313;-77
2021/11/24 07:02:54;;;;;;;;;;;7.80;99.90;;;;;;5097054;28;20247;-77
2021/11/24 07:05:21;;;;;;;;;;;7.80;99.90;;;;;;5096885;28;20023;-77
2021/11/24 07:07:48;;;;;;;;;;;7.80;99.90;;;;;;5096636;28;19967;-77
2021/11/24 07:10:15;;;;;;;;;;;7.80;99.90;;;;;;5096643;28;20023;-77
2021/11/24 07:12:43;;;;;;;;;;;7.70;99.90;;;;;;5096736;28;19924;-77
2021/11/24 07:15:10;;;;;;;;;;;7.80;99.90;;;;;;5096440;28;20275;-77
2021/11/24 07:17:37;;;;;;;;;;;7.70;99.90;;;;;;5096272;28;19934;-77
2021/11/24 07:20:04;;;;;;;;;;;7.70;99.90;;;;;;5096339;28;20300;-76
2021/11/24 07:22:31;;;;;;;;;;;7.70;99.90;;;;;;5096515;28;19924;-76
2021/11/24 07:24:58;;;;;;;;;;;7.80;99.90;;;;;;5096391;28;19931;-77
2021/11/24 07:27:25;;;;;;;;;;;7.70;99.90;;;;;;5096302;28;19935;-77
2021/11/24 07:29:53;;;;;;;;;;;7.70;99.90;;;;;;5098350;28;19924;-77
2021/11/24 07:32:20;;;;;;;;;;;7.70;99.90;;;;;;5097645;28;20241;-78
2021/11/24 07:34:47;;;;;;;;;;;7.70;99.90;;;;;;5096791;28;19928;-77
2021/11/24 07:37:14;;;;;;;;;;;7.70;99.90;;;;;;5100836;28;19928;-76
2021/11/24 07:39:41;;;;;;;;;;;7.60;99.90;;;;;;5095876;28;20015;-76
2021/11/24 07:42:08;;;;;;;;;;;7.60;99.90;;;;;;5096092;28;20424;-76
2021/11/24 07:44:35;;;;;;;;;;;7.60;99.90;;;;;;5095932;28;19927;-76
2021/11/24 07:47:03;;;;;;;;;;;7.60;99.90;;;;;;5096209;28;19978;-76
2021/11/24 07:49:30;;;;;;;;;;;7.50;99.90;;;;;;5095812;28;20027;-76
2021/11/24 07:51:57;;;;;;;;;;;7.50;99.90;;;;;;5095882;28;19928;-76
2021/11/24 07:54:24;;;;;;;;;;;7.50;99.90;;;;;;5095967;28;19924;-76
2021/11/24 07:56:51;;;;;;;;;;;7.50;99.90;;;;;;5095811;28;19997;-76
2021/11/24 07:59:17;;;;;;;;;;;7.50;99.90;;;;;;5095609;28;20011;-76
2021/11/24 08:01:44;;;;;;;;;;;7.50;99.90;;;;;;5095704;28;19960;-76
2021/11/24 08:04:13;;;;;;;;;;;7.50;99.90;;;;;;5095385;28;19924;-76
2021/11/24 08:06:40;;;;;;;;;;;7.50;99.90;;;;;;5095718;28;20019;-76
2021/11/24 08:09:06;;;;;;;;;;;7.50;99.90;;;;;;5095440;28;19928;-76
2021/11/24 08:11:33;;;;;;;;;;;7.50;99.90;;;;;;5095428;28;20403;-76
2021/11/24 08:14:00;;;;;;;;;;;7.60;99.90;;;;;;5095518;28;19924;-76
2021/11/24 08:16:27;;;;;;;;;;;7.60;99.90;;;;;;5095669;28;19924;-76
2021/11/24 08:18:54;;;;;;;;;;;7.50;99.90;;;;;;5095621;28;19928;-76
2021/11/24 08:21:22;;;;;;;;;;;7.60;99.90;;;;;;5095497;28;20019;-76
2021/11/24 08:23:49;;;;;;;;;;;7.60;99.90;;;;;;5095575;28;20015;-76
2021/11/24 08:26:16;;;;;;;;;;;7.50;99.90;;;;;;5095277;28;20161;-76
2021/11/24 08:28:43;;;;;;;;;;;7.60;99.90;;;;;;5095193;28;20356;-77
2021/11/24 08:31:10;;;;;;;;;;;7.60;99.90;;;;;;5095425;28;20035;-76
2021/11/24 08:33:37;;;;;;;;;;;7.60;99.90;;;;;;5095492;28;19928;-76
2021/11/24 08:36:04;;;;;;;;;;;7.60;99.90;;;;;;5095298;28;19986;-76
2021/11/24 08:38:33;;;;;;;;;;;7.60;99.90;;;;;;5095312;28;20244;-76
2021/11/24 08:41:00;;;;;;;;;;;7.60;99.90;;;;;;5095296;28;20348;-76
2021/11/24 08:43:26;;;;;;;;;;;7.60;99.90;;;;;;5095549;28;20006;-76
2021/11/24 08:45:53;;;;;;;;;;;7.60;99.90;;;;;;5095628;28;20014;-76
2021/11/24 08:48:21;;;;;;;;;;;7.60;99.90;;;;;;5094550;28;20018;-76
2021/11/24 08:50:48;;;;;;;;;;;7.70;99.90;;;;;;5094483;28;19984;-76
2021/11/24 08:53:15;;;;;;;;;;;7.60;99.90;;;;;;5094764;28;20416;-76
2021/11/24 08:55:43;;;;;;;;;;;7.60;99.90;;;;;;5094986;28;20245;-76
2021/11/24 08:58:10;;;;;;;;;;;7.70;99.90;;;;;;5095064;28;19924;-76
2021/11/24 09:00:37;;;;;;;;;;;7.70;99.90;;;;;;5097903;28;20014;-76
2021/11/24 09:03:05;;;;;;;;;;;7.70;99.90;;;;;;5114998;28;20023;-76
2021/11/24 09:05:32;;;;;;;;;;;7.70;99.90;;;;;;5115289;28;20018;-76
2021/11/24 09:07:59;;;;;;;;;;;7.70;99.90;;;;;;5115343;28;19932;-76
2021/11/24 09:10:27;;;;;;;;;;;7.70;99.90;;;;;;5115682;28;20007;-76
2021/11/24 09:12:55;;;;;;;;;;;7.80;99.90;;;;;;5115421;28;19934;-76
2021/11/24 09:15:22;;;;;;;;;;;7.80;99.90;;;;;;5115506;28;20256;-76
2021/11/24 09:17:49;;;;;;;;;;;7.80;99.90;;;;;;5114421;28;20020;-76
2021/11/24 09:20:16;;;;;;;;;;;7.80;99.90;;;;;;5117651;28;19981;-76
2021/11/24 09:22:44;;;;;;;;;;;7.80;99.90;;;;;;5119045;28;19949;-76
2021/11/24 09:25:13;;;;;;;;;;;7.80;99.90;;;;;;5118856;28;19924;-76
2021/11/24 09:27:47;;;;;;;;;;;7.80;99.90;;;;;;5118929;28;19924;-76
2021/11/24 09:30:15;;;;;;;;;;;7.90;99.90;;;;;;5118115;28;20010;-76
2021/11/24 09:32:43;;;;;;;;;;;7.90;99.90;;;;;;5118739;28;19985;-76
2021/11/24 09:35:10;;;;;;;;;;;7.90;99.90;;;;;;5118891;28;20002;-76
2021/11/24 09:37:36;;;;;;;;;;;7.90;99.90;;;;;;5118717;28;20010;-76
2021/11/24 09:40:05;;;;;;;;;;;7.90;99.90;;;;;;5119046;28;20011;-76
2021/11/24 09:42:32;;;;;;;;;;;7.90;99.90;;;;;;5118874;28;19934;-76
2021/11/24 09:44:59;;;;;;;;;;;7.90;99.90;;;;;;5118756;28;20321;-76
2021/11/24 09:47:27;;;;;;;;;;;7.90;99.90;;;;;;5118637;28;20290;-76
2021/11/24 09:49:56;;;;;;;;;;;7.90;99.90;;;;;;5118598;28;20018;-76
2021/11/24 09:52:23;;;;;;;;;;;7.80;99.90;;;;;;5118542;28;20015;-76
2021/11/24 09:54:50;;;;;;;;;;;7.90;99.90;;;;;;5118470;28;19971;-76
2021/11/24 09:57:17;;;;;;;;;;;7.90;99.90;;;;;;5118280;28;20305;-76
2021/11/24 09:59:44;;;;;;;;;;;7.80;99.90;;;;;;5118497;28;19967;-76
2021/11/24 10:02:11;;;;;;;;;;;7.90;99.90;;;;;;5118510;28;19942;-76
2021/11/24 10:04:40;;;;;;;;;;;7.90;99.90;;;;;;5118365;28;19923;-76
2021/11/24 10:07:08;;;;;;;;;;;7.90;99.90;;;;;;5118262;28;20026;-76
2021/11/24 10:09:35;;;;;;;;;;;8.00;99.90;;;;;;5118556;28;20255;-76
2021/11/24 10:12:02;;;;;;;;;;;7.90;99.90;;;;;;5118508;28;19923;-76
2021/11/24 10:14:29;;;;;;;;;;;7.90;99.90;;;;;;5118119;28;19930;-76
2021/11/24 10:17:03;;;;;;;;;;;8.00;99.90;;;;;;5118098;28;19923;-76
2021/11/24 10:19:30;;;;;;;;;;;8.00;99.90;;;;;;5118169;28;19934;-76
2021/11/24 10:21:58;;;;;;;;;;;8.00;99.90;;;;;;5118081;28;19934;-76
2021/11/24 10:24:29;;;;;;;;;;;8.00;99.90;;;;;;5118025;28;19946;-76
2021/11/24 10:26:56;;;;;;;;;;;8.10;99.90;;;;;;5117704;28;20336;-76
2021/11/24 10:29:23;;;;;;;;;;;8.10;99.90;;;;;;5117599;28;19923;-76
2021/11/24 10:31:51;;;;;;;;;;;8.10;99.90;;;;;;5117792;28;20010;-76
2021/11/24 10:34:19;;;;;;;;;;;8.10;99.90;;;;;;5117723;28;20351;-76
2021/11/24 10:36:49;;;;;;;;;;;8.20;99.90;;;;;;5117970;28;19923;-76
2021/11/24 10:39:18;;;;;;;;;;;8.10;99.90;;;;;;5117619;28;20015;-76
2021/11/24 10:41:45;;;;;;;;;;;8.20;99.90;;;;;;5117775;28;20076;-76
2021/11/24 10:44:11;;;;;;;;;;;8.20;99.90;;;;;;5117657;28;20010;-76
2021/11/24 10:46:38;;;;;;;;;;;8.20;99.90;;;;;;5117544;28;19924;-76
2021/11/24 10:49:06;;;;;;;;;;;8.20;99.90;;;;;;5116496;28;19934;-76
2021/11/24 10:51:35;;;;;;;;;;;8.30;99.90;;;;;;5117698;28;19934;-76
2021/11/24 10:54:20;;;;;;;;;;;8.30;99.90;;;;;;5117622;28;19993;-76
2021/11/24 10:57:04;;;;;;;;;;;8.40;99.90;;;;;;5117396;28;20418;-76
2021/11/24 10:59:32;;;;;;;;;;;8.40;99.90;;;;;;5117126;28;19934;-76
2021/11/24 11:02:17;;;;;;;;;;;8.40;99.90;;;;;;5117245;28;19935;-76
2021/11/24 11:04:57;;;;;;;;;;;8.40;99.90;;;;;;5117233;28;20030;-76
2021/11/24 11:07:24;;;;;;;;;;;8.40;99.90;;;;;;5117128;28;19924;-76
2021/11/24 11:09:59;;;;;;;;;;;8.30;99.90;;;;;;5117410;28;20030;-76
2021/11/24 11:12:29;;;;;;;;;;;8.30;99.90;;;;;;5117068;28;19924;-76
2021/11/24 11:14:56;;;;;;;;;;;8.30;99.90;;;;;;5116973;28;20019;-76
2021/11/24 11:17:23;;;;;;;;;;;8.40;99.90;;;;;;5116893;28;20019;-76
2021/11/24 11:19:49;;;;;;;;;;;8.40;99.90;;;;;;5116799;28;20421;-76
2021/11/24 11:22:17;;;;;;;;;;;8.40;99.90;;;;;;5116817;28;19935;-76
2021/11/24 11:24:43;;;;;;;;;;;8.40;99.90;;;;;;5116601;28;19934;-76
2021/11/24 11:27:10;;;;;;;;;;;8.40;99.90;;;;;;5116935;28;20236;-76
2021/11/24 11:29:40;;;;;;;;;;;8.50;99.90;;;;;;5116569;28;19946;-76
2021/11/24 11:32:07;;;;;;;;;;;8.50;99.90;;;;;;5116619;28;19924;-76
2021/11/24 11:34:36;;;;;;;;;;;8.50;99.90;;;;;;5116694;28;19924;-76
2021/11/24 11:37:04;;;;;;;;;;;8.50;99.90;;;;;;5116423;28;20014;-76
2021/11/24 11:39:31;;;;;;;;;;;8.50;99.90;;;;;;5115676;28;19924;-76
2021/11/24 11:41:57;;;;;;;;;;;8.50;99.90;;;;;;5116704;28;20014;-76
2021/11/24 11:44:24;;;;;;;;;;;8.50;99.90;;;;;;5116790;28;19978;-76
2021/11/24 11:46:54;;;;;;;;;;;8.50;99.90;;;;;;5116347;28;19934;-76
2021/11/24 11:49:21;;;;;;;;;;;8.50;99.90;;;;;;5116404;28;19934;-76
2021/11/24 11:51:48;;;;;;;;;;;8.60;99.90;;;;;;5116265;28;20014;-76
2021/11/24 11:54:23;;;;;;;;;;;8.60;99.90;;;;;;5116306;28;20344;-76
2021/11/24 11:56:50;;;;;;;;;;;8.60;99.90;;;;;;5116262;28;19981;-76
2021/11/24 11:59:17;;;;;;;;;;;8.70;99.90;;;;;;5115973;28;19924;-76
2021/11/24 12:01:55;;;;;;;;;;;8.80;99.90;;;;;;5116122;28;19971;-76
2021/11/24 12:04:22;;;;;;;;;;;8.80;99.90;;;;;;5115157;28;19935;-76
2021/11/24 12:06:49;;;;;;;;;;;8.80;99.90;;;;;;5116321;28;20271;-76
2021/11/24 12:09:20;;;;;;;;;;;8.80;99.90;;;;;;5115816;28;20010;-76
2021/11/24 12:12:20;;;;;;;;;;;8.80;99.90;;;;;;5115920;28;19931;-76
2021/11/24 12:14:51;;;;;;;;;;;8.90;99.90;;;;;;5115881;28;20064;-76
2021/11/24 12:17:32;;;;;;;;;;;8.90;99.90;;;;;;5115899;28;19923;-76
2021/11/24 12:19:59;;;;;;;;;;;8.90;99.90;;;;;;5115898;28;19928;-76
2021/11/24 12:22:50;;;;;;;;;;;8.90;99.90;;;;;;5115781;28;20027;-76
2021/11/24 12:25:32;;;;;;;;;;;8.90;99.90;;;;;;5100495;28;19924;-76
2021/11/24 12:28:07;;;;;;;;;;;8.90;99.90;;;;;;5115057;28;19935;-76
2021/11/24 12:30:50;;;;;;;;;;;8.90;99.90;;;;;;5115530;28;19923;-76
2021/11/24 12:33:19;;;;;;;;;;;8.90;99.90;;;;;;5113918;28;19970;-76
2021/11/24 12:35:47;;;;;;;;;;;9.00;99.90;;;;;;5115658;28;20435;-76
2021/11/24 12:38:14;;;;;;;;;;;9.00;99.90;;;;;;5115510;28;20018;-76
2021/11/24 12:40:41;;;;;;;;;;;9.00;99.90;;;;;;5115545;28;19924;-76
2021/11/24 12:43:12;;;;;;;;;;;9.00;99.90;;;;;;5115775;28;20014;-76
2021/11/24 12:45:39;;;;;;;;;;;9.00;99.90;;;;;;5115566;28;20413;-76
2021/11/24 12:48:06;;;;;;;;;;;9.00;99.90;;;;;;5115469;28;20256;-76
2021/11/24 12:50:35;;;;;;;;;;;9.10;99.90;;;;;;5116384;28;19934;-76
2021/11/24 12:53:03;;;;;;;;;;;9.00;99.90;;;;;;5120009;28;19988;-76
2021/11/24 12:55:30;;;;;;;;;;;9.10;99.90;;;;;;5119832;28;20002;-77
2021/11/24 12:57:56;;;;;;;;;;;9.10;99.90;;;;;;5119799;28;19927;-76
2021/11/24 13:00:24;;;;;;;;;;;9.10;99.90;;;;;;5119534;28;20010;-76
2021/11/24 13:02:51;;;;;;;;;;;9.10;99.90;;;;;;5119432;28;19931;-76
2021/11/24 13:05:17;;;;;;;;;;;9.10;99.90;;;;;;5119521;28;20011;-76
2021/11/24 13:07:51;;;;;;;;;;;9.10;99.90;;;;;;5119175;28;19971;-76
2021/11/24 13:10:18;;;;;;;;;;;9.10;99.90;;;;;;5103032;28;19931;-76
2021/11/24 13:12:45;;;;;;;;;;;9.10;99.90;;;;;;5098973;28;19924;-76
2021/11/24 13:15:11;;;;;;;;;;;9.10;99.90;;;;;;5098934;28;20017;-76
2021/11/24 13:17:42;;;;;;;;;;;9.10;99.90;;;;;;5098857;28;19924;-76
2021/11/24 13:20:10;;;;;;;;;;;9.00;99.90;;;;;;5098771;28;19924;-76
2021/11/24 13:22:38;;;;;;;;;;;9.00;99.90;;;;;;5098727;28;20375;-76
2021/11/24 13:25:08;;;;;;;;;;;9.00;99.90;;;;;;5098928;28;20268;-76
2021/11/24 13:27:42;;;;;;;;;;;9.00;99.90;;;;;;5098773;28;20007;-76
2021/11/24 13:30:09;;;;;;;;;;;9.00;99.90;;;;;;5098481;28;20378;-76
2021/11/24 13:32:36;;;;;;;;;;;9.00;99.90;;;;;;5098523;28;19930;-76
2021/11/24 13:35:03;;;;;;;;;;;9.10;99.90;;;;;;5098672;28;20344;-76
2021/11/24 13:37:31;;;;;;;;;;;9.10;99.90;;;;;;5098431;28;19928;-76
2021/11/24 13:39:58;;;;;;;;;;;9.10;99.90;;;;;;5098587;28;20322;-76
2021/11/24 13:42:26;;;;;;;;;;;9.10;99.90;;;;;;5098492;28;20015;-76
2021/11/24 13:44:53;;;;;;;;;;;9.10;99.90;;;;;;5098225;28;20320;-76
2021/11/24 13:47:24;;;;;;;;;;;9.10;99.90;;;;;;5098483;28;20027;-76
2021/11/24 13:49:51;;;;;;;;;;;9.10;99.90;;;;;;5098163;28;19986;-76
2021/11/24 13:52:20;;;;;;;;;;;9.10;99.90;;;;;;5098085;28;19924;-76
2021/11/24 13:54:47;;;;;;;;;;;9.10;99.90;;;;;;5097997;28;20019;-76
2021/11/24 13:57:17;;;;;;;;;;;9.10;99.90;;;;;;5098152;28;19924;-76
2021/11/24 13:59:45;;;;;;;;;;;9.20;99.90;;;;;;5097262;28;20034;-76
2021/11/24 14:02:14;;;;;;;;;;;9.20;99.90;;;;;;5097535;28;20252;-76
2021/11/24 14:04:41;;;;;;;;;;;9.10;99.90;;;;;;5097923;28;19931;-76
2021/11/24 14:07:08;;;;;;;;;;;9.10;99.90;;;;;;5097960;28;19924;-76
2021/11/24 14:09:37;;;;;;;;;;;9.10;99.90;;;;;;5098100;28;20022;-76
2021/11/24 14:12:07;;;;;;;;;;;9.10;99.90;;;;;;5098613;28;19924;-76
2021/11/24 14:14:41;;;;;;;;;;;9.00;99.90;;;;;;5097776;28;20349;-76
2021/11/24 14:17:14;;;;;;;;;;;9.00;99.90;;;;;;5097752;28;19935;-76
2021/11/24 14:19:42;;;;;;;;;;;9.00;99.90;;;;;;5096561;28;19924;-76
2021/11/24 14:22:09;;;;;;;;;;;9.00;99.90;;;;;;5097986;28;19924;-76
2021/11/24 14:24:36;;;;;;;;;;;9.00;99.90;;;;;;5097504;28;19924;-76
2021/11/24 14:27:05;;;;;;;;;;;9.00;99.90;;;;;;5097564;28;19942;-76
2021/11/24 14:29:32;;;;;;;;;;;9.00;99.90;;;;;;5096968;28;19928;-76
2021/11/24 14:31:59;;;;;;;;;;;9.00;99.90;;;;;;5097066;28;19924;-76
2021/11/24 14:34:28;;;;;;;;;;;9.00;99.90;;;;;;5097388;28;20299;-76
2021/11/24 14:36:55;;;;;;;;;;;8.90;99.90;;;;;;5097436;28;20328;-76